createdAt,value
2022-08-25T00:02:05.948Z,99.90
2022-08-25T00:04:35.244Z,99.90
2022-08-25T00:07:05.711Z,99.90
2022-08-25T00:09:37.311Z,99.90
2022-08-25T00:12:07.934Z,99.90
2022-08-25T00:14:37.079Z,99.90
2022-08-25T00:17:08.086Z,99.90
2022-08-25T00:19:38.079Z,99.90
2022-08-25T00:22:08.856Z,99.90
2022-08-25T00:24:36.621Z,99.90
2022-08-25T00:27:05.033Z,99.90
2022-08-25T00:29:37.976Z,99.90
2022-08-25T00:32:09.961Z,99.90
2022-08-25T00:34:40.647Z,99.90
2022-08-25T00:37:15.810Z,99.90
2022-08-25T00:39:43.113Z,99.90
2022-08-25T00:42:16.021Z,99.90
2022-08-25T00:44:44.336Z,99.90
2022-08-25T00:47:14.143Z,99.90
2022-08-25T00:49:59.646Z,99.90
2022-08-25T00:52:34.609Z,99.90
2022-08-25T00:55:08.585Z,99.90
2022-08-25T00:57:46.191Z,99.90
2022-08-25T01:00:20.613Z,99.90
2022-08-25T01:02:48.265Z,99.90
2022-08-25T01:05:16.201Z,99.90
2022-08-25T01:07:44.705Z,99.90
2022-08-25T01:10:13.512Z,99.90
2022-08-25T01:12:46.627Z,99.90
2022-08-25T01:15:17.850Z,99.90
2022-08-25T01:17:57.246Z,99.90
2022-08-25T01:20:31.456Z,99.90
2022-08-25T01:22:59.848Z,99.90
2022-08-25T01:25:56.850Z,99.90
2022-08-25T01:28:24.297Z,99.90
2022-08-25T01:30:54.430Z,99.90
2022-08-25T01:33:24.200Z,99.90
2022-08-25T01:35:54.307Z,99.90
2022-08-25T01:38:24.028Z,99.90
2022-08-25T01:40:51.425Z,99.90
2022-08-25T01:43:31.673Z,99.90
2022-08-25T01:45:59.180Z,99.90
2022-08-25T01:48:27.150Z,99.90
2022-08-25T01:50:54.430Z,99.90
2022-08-25T01:53:29.691Z,99.90
2022-08-25T01:56:09.929Z,99.90
2022-08-25T01:58:42.214Z,99.90
2022-08-25T02:01:17.971Z,99.90
2022-08-25T02:03:48.073Z,99.90
2022-08-25T02:06:29.922Z,99.90
2022-08-25T02:09:01.222Z,99.90
2022-08-25T02:11:29.085Z,99.90
2022-08-25T02:14:02.008Z,99.90
2022-08-25T02:16:32.854Z,99.90
2022-08-25T02:19:00.893Z,99.90
2022-08-25T02:21:28.418Z,99.90
2022-08-25T02:23:56.932Z,99.90
2022-08-25T02:26:24.168Z,99.90
2022-08-25T02:28:52.503Z,99.90
2022-08-25T02:31:25.659Z,99.90
2022-08-25T02:33:54.271Z,99.90
2022-08-25T02:36:24.428Z,99.90
2022-08-25T02:38:52.829Z,99.90
2022-08-25T02:41:25.168Z,99.90
2022-08-25T02:43:58.964Z,99.90
2022-08-25T02:46:29.476Z,99.90
2022-08-25T02:48:59.170Z,99.90
2022-08-25T02:51:30.012Z,99.90
2022-08-25T02:53:58.841Z,99.90
2022-08-25T02:56:26.778Z,99.90
2022-08-25T02:58:54.184Z,99.90
2022-08-25T03:01:22.149Z,99.90
2022-08-25T03:03:57.289Z,99.90
2022-08-25T03:06:25.279Z,99.90
2022-08-25T03:08:55.652Z,99.90
2022-08-25T03:11:26.449Z,99.90
2022-08-25T03:13:54.860Z,99.90
2022-08-25T03:16:22.705Z,99.90
2022-08-25T03:18:55.290Z,99.90
2022-08-25T03:21:23.363Z,99.90
2022-08-25T03:23:52.774Z,99.90
2022-08-25T03:26:38.434Z,99.90
2022-08-25T03:29:06.014Z,99.90
2022-08-25T03:31:34.675Z,99.90
2022-08-25T03:34:02.750Z,99.90
2022-08-25T03:36:30.461Z,99.90
2022-08-25T03:39:00.492Z,99.90
2022-08-25T03:41:32.755Z,99.90
2022-08-25T03:44:01.749Z,99.90
2022-08-25T03:46:44.451Z,99.90
2022-08-25T03:49:16.103Z,99.90
2022-08-25T03:51:49.367Z,99.90
2022-08-25T03:54:19.172Z,99.90
2022-08-25T03:56:46.940Z,99.90
2022-08-25T03:59:19.180Z,99.90
2022-08-25T04:01:54.467Z,99.90
2022-08-25T04:04:25.194Z,99.90
2022-08-25T04:06:53.059Z,99.90
2022-08-25T04:09:21.005Z,99.90
2022-08-25T04:11:49.224Z,99.90
2022-08-25T04:14:21.508Z,99.90
2022-08-25T04:16:49.077Z,99.90
2022-08-25T04:19:16.531Z,99.90
2022-08-25T04:21:45.905Z,99.90
2022-08-25T04:24:14.254Z,99.90
2022-08-25T04:26:47.209Z,99.90
2022-08-25T04:29:18.825Z,99.90
2022-08-25T04:31:51.838Z,99.90
2022-08-25T04:34:29.617Z,99.90
2022-08-25T04:37:05.509Z,99.90
2022-08-25T04:39:33.405Z,99.90
2022-08-25T04:42:01.226Z,99.90
2022-08-25T04:44:30.140Z,99.90
2022-08-25T04:47:00.966Z,99.90
2022-08-25T04:49:31.672Z,99.90
2022-08-25T04:51:59.260Z,99.90
2022-08-25T04:54:37.375Z,99.90
2022-08-25T04:57:07.135Z,99.90
2022-08-25T04:59:34.487Z,99.90
2022-08-25T05:02:05.463Z,99.90
2022-08-25T05:04:37.580Z,99.90
2022-08-25T05:07:05.507Z,99.90
2022-08-25T05:09:33.141Z,99.90
2022-08-25T05:12:02.212Z,99.90
2022-08-25T05:14:32.898Z,99.90
2022-08-25T05:17:02.020Z,99.90
2022-08-25T05:19:29.307Z,99.90
2022-08-25T05:21:58.661Z,99.90
2022-08-25T05:24:26.791Z,99.90
2022-08-25T05:26:54.103Z,99.90
2022-08-25T05:29:21.574Z,99.90
2022-08-25T05:31:51.873Z,99.90
2022-08-25T05:34:20.025Z,99.90
2022-08-25T05:36:51.155Z,99.90
2022-08-25T05:39:18.468Z,99.90
2022-08-25T05:41:46.267Z,99.90
2022-08-25T05:44:17.918Z,99.90
2022-08-25T05:46:49.928Z,99.90
2022-08-25T05:49:17.766Z,99.90
2022-08-25T05:51:47.736Z,99.90
2022-08-25T05:54:15.444Z,99.90
2022-08-25T05:56:43.393Z,99.90
2022-08-25T05:59:11.128Z,99.90
2022-08-25T06:01:56.786Z,99.90
2022-08-25T06:04:26.436Z,99.90
2022-08-25T06:06:54.869Z,99.90
2022-08-25T06:09:23.334Z,99.90
2022-08-25T06:11:55.210Z,99.90
2022-08-25T06:14:23.871Z,99.90
2022-08-25T06:16:52.276Z,99.90
2022-08-25T06:19:20.170Z,99.90
2022-08-25T06:21:47.391Z,99.90
2022-08-25T06:24:17.115Z,99.90
2022-08-25T06:26:46.490Z,99.90
2022-08-25T06:29:14.670Z,99.90
2022-08-25T06:31:43.793Z,99.90
2022-08-25T06:34:12.352Z,99.90
2022-08-25T06:36:43.161Z,99.90
2022-08-25T06:39:19.582Z,99.90
2022-08-25T06:41:53.551Z,99.90
2022-08-25T06:44:23.810Z,99.90
2022-08-25T06:46:51.969Z,99.90
2022-08-25T06:49:19.896Z,99.90
2022-08-25T06:51:47.531Z,99.90
2022-08-25T06:54:14.833Z,99.90
2022-08-25T06:56:43.110Z,99.90
2022-08-25T06:59:11.139Z,99.90
2022-08-25T07:01:39.175Z,99.90
2022-08-25T07:04:13.070Z,99.90
2022-08-25T07:06:44.977Z,99.90
2022-08-25T07:09:16.876Z,99.90
2022-08-25T07:11:47.478Z,99.90
2022-08-25T07:14:19.542Z,99.90
2022-08-25T07:16:50.437Z,99.90
2022-08-25T07:19:20.928Z,99.90
2022-08-25T07:21:52.130Z,99.70
2022-08-25T07:24:24.790Z,99.10
2022-08-25T07:26:55.010Z,98.20
2022-08-25T07:29:32.029Z,96.60
2022-08-25T07:32:07.101Z,95.60
2022-08-25T07:34:52.929Z,94.80
2022-08-25T07:37:47.562Z,95.40
2022-08-25T07:40:15.528Z,95.70
2022-08-25T07:42:43.496Z,96.20
2022-08-25T07:45:12.247Z,94.70
2022-08-25T07:47:42.930Z,94.10
2022-08-25T07:50:12.899Z,94.30
2022-08-25T07:52:41.999Z,91.70
2022-08-25T07:55:12.184Z,91.40
2022-08-25T07:57:50.922Z,91.50
2022-08-25T08:00:28.262Z,90.60
2022-08-25T08:02:56.755Z,92.20
2022-08-25T08:05:25.290Z,91.50
2022-08-25T08:07:53.882Z,90.10
2022-08-25T08:10:53.997Z,89.20
2022-08-25T08:13:10.319Z,86.90
2022-08-25T08:15:41.952Z,83.00
2022-08-25T08:18:10.919Z,83.50
2022-08-25T08:20:42.355Z,79.00
2022-08-25T08:23:11.828Z,77.50
2022-08-25T08:25:41.857Z,74.10
2022-08-25T08:28:11.363Z,78.10
2022-08-25T08:30:39.458Z,75.70
2022-08-25T08:33:10.078Z,73.10
2022-08-25T08:35:41.432Z,73.30
2022-08-25T08:38:17.219Z,71.80
2022-08-25T08:41:15.815Z,73.40
2022-08-25T08:43:43.724Z,67.20
2022-08-25T08:46:11.384Z,67.50
2022-08-25T08:49:16.299Z,68.00
2022-08-25T08:51:57.859Z,69.10
2022-08-25T08:54:28.659Z,70.00
2022-08-25T08:57:16.649Z,74.20
2022-08-25T08:59:56.984Z,75.20
2022-08-25T09:02:51.550Z,72.40
2022-08-25T09:05:22.703Z,68.90
2022-08-25T09:07:59.723Z,67.10
2022-08-25T09:10:42.675Z,63.60
2022-08-25T09:13:26.134Z,61.20
2022-08-25T09:16:33.082Z,61.60
2022-08-25T09:19:21.287Z,60.40
2022-08-25T09:22:02.063Z,62.70
2022-08-25T09:24:34.951Z,60.40
2022-08-25T09:27:19.307Z,59.80
2022-08-25T09:30:14.472Z,61.00
2022-08-25T09:32:52.575Z,59.50
2022-08-25T09:35:32.233Z,58.60
2022-08-25T09:38:11.000Z,58.30
2022-08-25T09:40:43.209Z,57.90
2022-08-25T09:43:40.318Z,56.50
2022-08-25T09:46:24.017Z,56.00
2022-08-25T09:48:57.758Z,54.60
2022-08-25T09:51:38.018Z,56.20
2022-08-25T09:54:25.381Z,54.90
2022-08-25T09:56:54.685Z,53.10
2022-08-25T09:59:34.383Z,53.20
2022-08-25T10:02:25.805Z,55.90
2022-08-25T10:04:53.770Z,54.80
2022-08-25T10:07:33.313Z,51.00
2022-08-25T10:10:16.306Z,53.30
2022-08-25T10:12:51.201Z,52.70
2022-08-25T10:15:29.946Z,52.00
2022-08-25T10:18:34.236Z,52.60
2022-08-25T10:21:17.448Z,51.80
2022-08-25T10:23:52.754Z,47.40
2022-08-25T10:27:01.339Z,48.10
2022-08-25T10:30:08.508Z,47.40
2022-08-25T10:32:44.541Z,46.60
2022-08-25T10:35:23.284Z,46.60
2022-08-25T10:38:08.424Z,46.30
2022-08-25T10:41:10.001Z,47.00
2022-08-25T10:43:42.992Z,46.80
2022-08-25T10:46:33.470Z,46.50
2022-08-25T10:49:16.302Z,46.10
2022-08-25T10:52:02.325Z,46.40
2022-08-25T10:54:46.280Z,45.60
2022-08-25T10:57:37.171Z,45.90
2022-08-25T11:00:17.569Z,46.70
2022-08-25T11:03:11.824Z,46.80
2022-08-25T11:06:04.522Z,48.70
2022-08-25T11:08:40.086Z,49.60
2022-08-25T11:11:30.408Z,48.30
2022-08-25T11:14:12.211Z,48.00
2022-08-25T11:16:42.136Z,45.00
2022-08-25T11:19:15.748Z,46.20
2022-08-25T11:21:46.516Z,46.10
2022-08-25T11:24:23.958Z,45.70
2022-08-25T11:26:56.162Z,43.60
2022-08-25T11:29:28.970Z,46.50
2022-08-25T11:32:01.218Z,44.70
2022-08-25T11:34:34.955Z,46.50
2022-08-25T11:37:28.454Z,45.60
2022-08-25T11:40:14.279Z,44.90
2022-08-25T11:43:00.331Z,46.80
2022-08-25T11:45:55.762Z,45.20
2022-08-25T11:48:34.364Z,46.10
2022-08-25T11:51:44.475Z,47.50
2022-08-25T11:54:21.632Z,46.10
2022-08-25T11:56:59.322Z,46.50
2022-08-25T12:00:04.024Z,46.50
2022-08-25T12:02:48.044Z,48.00
2022-08-25T12:05:26.395Z,47.50
2022-08-25T12:08:15.112Z,47.90
2022-08-25T12:11:10.838Z,46.60
2022-08-25T12:13:51.753Z,44.90
2022-08-25T12:16:36.270Z,44.70
2022-08-25T12:19:36.877Z,45.70
2022-08-25T12:22:05.584Z,45.10
2022-08-25T12:24:52.397Z,45.70
2022-08-25T12:27:33.597Z,44.10
2022-08-25T12:30:32.925Z,46.70
2022-08-25T12:33:23.942Z,46.20
2022-08-25T12:36:00.989Z,45.30
2022-08-25T12:38:50.950Z,45.30
2022-08-25T12:41:33.579Z,44.50
2022-08-25T12:44:36.083Z,47.30
2022-08-25T12:47:13.829Z,47.40
2022-08-25T12:49:41.276Z,49.50
2022-08-25T12:52:26.056Z,49.80
2022-08-25T12:55:03.713Z,47.90
2022-08-25T12:57:57.794Z,46.50
2022-08-25T13:00:33.220Z,46.20
2022-08-25T13:03:07.150Z,48.10
2022-08-25T13:06:02.024Z,50.10
2022-08-25T13:09:01.044Z,51.30
2022-08-25T13:11:43.208Z,50.90
2022-08-25T13:14:21.767Z,50.30
2022-08-25T13:17:00.983Z,49.30
2022-08-25T13:19:34.616Z,49.20
2022-08-25T13:22:15.589Z,48.40
2022-08-25T13:24:47.453Z,48.00
2022-08-25T13:27:24.935Z,46.60
2022-08-25T13:29:58.112Z,46.50
2022-08-25T13:32:38.933Z,47.60
2022-08-25T13:35:32.479Z,46.90
2022-08-25T13:38:19.295Z,48.10
2022-08-25T13:40:47.313Z,47.20
2022-08-25T13:43:15.631Z,50.00
2022-08-25T13:45:48.120Z,51.60
2022-08-25T13:48:39.243Z,51.10
2022-08-25T13:51:22.468Z,51.50
2022-08-25T13:54:06.215Z,50.30
2022-08-25T13:56:41.634Z,49.20
2022-08-25T13:59:28.751Z,48.20
2022-08-25T14:02:00.005Z,47.80
2022-08-25T14:04:33.586Z,50.10
2022-08-25T14:07:19.302Z,51.30
2022-08-25T14:09:52.846Z,50.70
2022-08-25T14:12:31.278Z,49.90
2022-08-25T14:15:02.047Z,51.00
2022-08-25T14:17:39.731Z,56.60
2022-08-25T14:20:19.157Z,57.00
2022-08-25T14:22:46.750Z,57.70
2022-08-25T14:25:17.650Z,58.90
2022-08-25T14:28:06.485Z,57.10
2022-08-25T14:30:45.997Z,58.60
2022-08-25T14:33:15.382Z,60.00
2022-08-25T14:35:45.909Z,61.40
2022-08-25T14:38:15.836Z,61.80
2022-08-25T14:40:45.130Z,61.40
2022-08-25T14:43:13.296Z,60.00
2022-08-25T14:45:43.671Z,62.40
2022-08-25T14:48:24.222Z,63.80
2022-08-25T14:50:53.609Z,62.60
2022-08-25T14:53:25.772Z,59.50
2022-08-25T14:55:58.735Z,56.20
2022-08-25T14:58:33.980Z,59.60
2022-08-25T15:01:03.384Z,59.90
2022-08-25T15:03:38.482Z,62.70
2022-08-25T15:06:20.141Z,63.00
2022-08-25T15:09:10.810Z,64.30
2022-08-25T15:11:44.465Z,64.50
2022-08-25T15:14:16.190Z,62.90
2022-08-25T15:16:55.469Z,63.20
2022-08-25T15:19:26.888Z,64.30
2022-08-25T15:21:58.144Z,61.90
2022-08-25T15:24:28.381Z,62.70
2022-08-25T15:26:59.150Z,62.60
2022-08-25T15:29:30.065Z,63.50
2022-08-25T15:31:58.857Z,63.20
2022-08-25T15:34:30.169Z,63.20
2022-08-25T15:36:59.797Z,62.30
2022-08-25T15:39:27.876Z,64.00
2022-08-25T15:42:00.444Z,62.40
2022-08-25T15:44:31.338Z,62.60
2022-08-25T15:46:59.559Z,62.70
2022-08-25T15:49:29.742Z,62.70
2022-08-25T15:51:58.989Z,61.70
2022-08-25T15:54:27.592Z,62.40
2022-08-25T15:56:56.606Z,62.80
2022-08-25T15:59:27.868Z,64.00
2022-08-25T16:01:55.411Z,63.70
2022-08-25T16:04:25.335Z,64.70
2022-08-25T16:06:54.066Z,67.10
2022-08-25T16:09:26.735Z,67.60
2022-08-25T16:11:56.948Z,68.90
2022-08-25T16:14:26.104Z,69.60
2022-08-25T16:16:58.691Z,69.70
2022-08-25T16:19:30.191Z,70.50
2022-08-25T16:21:59.898Z,70.30
2022-08-25T16:24:30.306Z,70.30
2022-08-25T16:27:10.919Z,70.40
2022-08-25T16:29:42.569Z,70.80
2022-08-25T16:32:13.429Z,72.20
2022-08-25T16:34:42.460Z,71.90
2022-08-25T16:37:09.913Z,72.20
2022-08-25T16:39:44.111Z,73.50
2022-08-25T16:42:12.826Z,74.90
2022-08-25T16:44:42.831Z,74.30
2022-08-25T16:47:14.532Z,73.20
2022-08-25T16:49:46.316Z,71.60
2022-08-25T16:52:34.831Z,70.80
2022-08-25T16:55:16.412Z,71.50
2022-08-25T16:57:49.828Z,74.00
2022-08-25T17:00:19.469Z,75.80
2022-08-25T17:02:47.256Z,76.90
2022-08-25T17:05:14.831Z,77.50
2022-08-25T17:07:42.209Z,77.60
2022-08-25T17:10:12.839Z,79.30
2022-08-25T17:12:42.411Z,79.50
2022-08-25T17:15:12.033Z,80.60
2022-08-25T17:17:41.969Z,81.40
2022-08-25T17:20:09.490Z,82.20
2022-08-25T17:22:37.172Z,82.40
2022-08-25T17:25:07.111Z,83.10
2022-08-25T17:27:34.829Z,83.60
2022-08-25T17:30:04.902Z,83.30
2022-08-25T17:32:32.183Z,84.30
2022-08-25T17:34:59.998Z,85.50
2022-08-25T17:37:27.850Z,85.80
2022-08-25T17:39:56.806Z,86.20
2022-08-25T17:42:34.078Z,87.30
2022-08-25T17:45:01.817Z,88.30
2022-08-25T17:47:29.153Z,89.30
2022-08-25T17:49:56.871Z,90.00
2022-08-25T17:52:25.514Z,90.10
2022-08-25T17:54:55.664Z,90.00
2022-08-25T17:57:26.273Z,90.10
2022-08-25T17:59:55.003Z,90.40
2022-08-25T18:02:24.846Z,90.60
2022-08-25T18:04:55.647Z,90.80
2022-08-25T18:07:25.903Z,90.90
2022-08-25T18:09:54.047Z,91.10
2022-08-25T18:12:27.511Z,91.60
2022-08-25T18:14:55.371Z,91.60
2022-08-25T18:17:25.347Z,91.80
2022-08-25T18:19:53.774Z,92.30
2022-08-25T18:22:21.506Z,92.40
2022-08-25T18:24:51.412Z,92.50
2022-08-25T18:27:21.701Z,92.70
2022-08-25T18:29:49.482Z,92.80
2022-08-25T18:32:20.577Z,93.20
2022-08-25T18:34:53.642Z,93.50
2022-08-25T18:37:39.697Z,93.90
2022-08-25T18:40:23.641Z,94.00
2022-08-25T18:42:54.007Z,94.00
2022-08-25T18:45:25.179Z,94.00
2022-08-25T18:47:57.486Z,94.20
2022-08-25T18:50:35.625Z,94.80
2022-08-25T18:53:06.284Z,95.30
2022-08-25T18:55:34.038Z,96.10
2022-08-25T18:58:01.774Z,96.90
2022-08-25T19:00:33.807Z,97.10
2022-08-25T19:03:03.884Z,97.60
2022-08-25T19:05:35.504Z,98.40
2022-08-25T19:08:08.925Z,99.20
2022-08-25T19:10:37.253Z,99.90
2022-08-25T19:13:08.197Z,99.90
2022-08-25T19:15:37.805Z,99.90
2022-08-25T19:18:09.935Z,99.90
2022-08-25T19:20:42.591Z,99.90
2022-08-25T19:23:10.440Z,99.90
2022-08-25T19:25:41.766Z,99.90
2022-08-25T19:28:12.192Z,99.90
2022-08-25T19:30:39.884Z,99.90
2022-08-25T19:33:42.270Z,99.90
2022-08-25T19:36:09.779Z,99.90
2022-08-25T19:38:38.129Z,99.90
2022-08-25T19:41:14.109Z,99.90
2022-08-25T19:43:55.165Z,99.90
2022-08-25T19:46:35.264Z,99.90
2022-08-25T19:49:26.335Z,99.90
2022-08-25T19:51:55.738Z,99.90
2022-08-25T19:54:34.148Z,99.90
2022-08-25T19:57:03.651Z,99.90
2022-08-25T19:59:40.630Z,99.90
2022-08-25T20:02:18.175Z,99.90
2022-08-25T20:04:53.022Z,99.90
2022-08-25T20:07:23.739Z,99.90
2022-08-25T20:09:53.527Z,99.90
2022-08-25T20:12:23.694Z,99.90
2022-08-25T20:14:55.271Z,99.90
2022-08-25T20:17:26.210Z,99.90
2022-08-25T20:20:01.063Z,99.90
2022-08-25T20:22:31.357Z,99.90
2022-08-25T20:25:03.123Z,99.90
2022-08-25T20:27:41.531Z,99.90
2022-08-25T20:30:16.751Z,99.90
2022-08-25T20:32:47.359Z,99.90
2022-08-25T20:35:15.148Z,99.90
2022-08-25T20:37:46.347Z,99.90
2022-08-25T20:40:20.769Z,99.90
2022-08-25T20:42:57.064Z,99.90
2022-08-25T20:45:24.967Z,99.90
2022-08-25T20:47:53.030Z,99.90
2022-08-25T20:50:23.615Z,99.90
2022-08-25T20:52:52.791Z,99.90
2022-08-25T20:55:21.749Z,99.90
2022-08-25T20:57:49.210Z,99.90
2022-08-25T21:00:19.652Z,99.90
2022-08-25T21:02:52.808Z,99.90
2022-08-25T21:05:20.777Z,99.90
2022-08-25T21:07:48.371Z,99.90
2022-08-25T21:10:16.809Z,99.90
2022-08-25T21:12:45.127Z,99.90
2022-08-25T21:15:15.342Z,99.90
2022-08-25T21:17:50.576Z,99.90
2022-08-25T21:20:23.631Z,99.90
2022-08-25T21:22:54.355Z,99.90
2022-08-25T21:25:22.130Z,99.90
2022-08-25T21:27:54.491Z,99.90
2022-08-25T21:30:22.367Z,99.90
2022-08-25T21:32:53.551Z,99.90
2022-08-25T21:35:31.060Z,99.90
2022-08-25T21:38:00.964Z,99.90
2022-08-25T21:40:33.798Z,99.90
2022-08-25T21:43:01.947Z,99.90
2022-08-25T21:45:43.258Z,99.90
2022-08-25T21:48:17.778Z,99.90
2022-08-25T21:50:48.056Z,99.90
2022-08-25T21:53:17.907Z,99.90
2022-08-25T21:55:45.213Z,99.90
2022-08-25T21:58:14.698Z,99.90
2022-08-25T22:00:43.742Z,99.90
2022-08-25T22:03:11.399Z,99.90
2022-08-25T22:05:39.360Z,99.90
2022-08-25T22:08:07.921Z,99.90
2022-08-25T22:10:46.255Z,99.90
2022-08-25T22:13:18.818Z,99.90
2022-08-25T22:15:51.883Z,99.90
2022-08-25T22:18:19.760Z,99.90
2022-08-25T22:20:47.159Z,99.90
2022-08-25T22:23:20.294Z,99.90
2022-08-25T22:25:48.386Z,99.90
2022-08-25T22:28:15.996Z,99.90
2022-08-25T22:30:43.270Z,99.90
2022-08-25T22:33:13.113Z,99.90
2022-08-25T22:35:40.439Z,99.90
2022-08-25T22:38:12.464Z,99.90
2022-08-25T22:40:40.589Z,99.90
2022-08-25T22:43:10.946Z,99.90
2022-08-25T22:45:38.463Z,99.90
2022-08-25T22:48:08.463Z,99.90
2022-08-25T22:50:37.058Z,99.90
2022-08-25T22:53:04.481Z,99.90
2022-08-25T22:55:32.724Z,99.90
2022-08-25T22:58:00.369Z,99.90
2022-08-25T23:00:29.028Z,99.90
2022-08-25T23:02:58.870Z,99.90
2022-08-25T23:05:26.087Z,99.90
2022-08-25T23:07:55.213Z,99.90
2022-08-25T23:10:23.565Z,99.90
2022-08-25T23:12:52.327Z,99.90
2022-08-25T23:15:20.535Z,99.90
2022-08-25T23:17:47.766Z,99.90
2022-08-25T23:20:36.125Z,99.90
2022-08-25T23:23:13.787Z,99.90
2022-08-25T23:25:41.276Z,99.90
2022-08-25T23:28:09.341Z,99.90
2022-08-25T23:30:39.384Z,99.90
2022-08-25T23:33:15.591Z,99.90
2022-08-25T23:35:50.129Z,99.90
2022-08-25T23:38:20.446Z,99.90
2022-08-25T23:40:50.154Z,99.90
2022-08-25T23:43:20.142Z,99.90
2022-08-25T23:45:50.071Z,99.90
2022-08-25T23:48:21.261Z,99.90
2022-08-25T23:50:49.101Z,99.90
2022-08-25T23:53:28.013Z,99.90
2022-08-25T23:55:57.662Z,99.90
2022-08-25T23:58:27.361Z,99.90
